Time;durP1;ratioP1;P1;durP2;ratioP2;P2;SDS_P1;SDS_P2;PMS_P1;PMS_P2;Temp;Humidity;BMP_temperature;BMP_pressure;BME280_temperature;BME280_humidity;BME280_pressure;Samples;Min_cycle;Max_cycle;Signal;HPM_P1;HPM_P2
2023/04/23 00:01:57;;;;;;;63.55;40.45;;;8.90;99.90;;;;;;5066329;28;20105;-70
2023/04/23 00:04:25;;;;;;;63.10;41.35;;;9.00;99.90;;;;;;5073872;28;20112;-70
2023/04/23 00:06:52;;;;;;;61.92;41.40;;;9.00;99.90;;;;;;5076362;28;20041;-70
2023/04/23 00:09:17;;;;;;;58.65;40.40;;;9.00;99.90;;;;;;5081690;28;20039;-70
2023/04/23 00:11:44;;;;;;;57.95;38.35;;;9.00;99.90;;;;;;5084739;28;20106;-69
2023/04/23 00:14:10;;;;;;;63.17;42.85;;;9.00;99.90;;;;;;5084864;28;20048;-69
2023/04/23 00:16:38;;;;;;;66.72;44.03;;;9.00;99.90;;;;;;5088855;28;20086;-69
2023/04/23 00:19:03;;;;;;;65.15;43.70;;;9.00;99.90;;;;;;5089500;28;20071;-70
2023/04/23 00:21:30;;;;;;;62.80;43.15;;;9.00;99.90;;;;;;5087739;28;20616;-70
2023/04/23 00:23:56;;;;;;;66.10;42.92;;;9.00;99.90;;;;;;5080699;28;20052;-70
2023/04/23 00:26:21;;;;;;;73.70;44.17;;;9.00;99.90;;;;;;5089019;28;20042;-70
2023/04/23 00:28:47;;;;;;;66.47;44.80;;;9.00;99.90;;;;;;5083861;28;20408;-69
2023/04/23 00:31:13;;;;;;;64.60;41.70;;;8.90;99.90;;;;;;5093567;28;20549;-70
2023/04/23 00:33:38;;;;;;;73.57;45.10;;;8.90;99.90;;;;;;5081236;28;20032;-70
2023/04/23 00:36:04;;;;;;;63.50;41.78;;;8.90;99.90;;;;;;5085444;28;20062;-70
2023/04/23 00:38:30;;;;;;;65.32;44.22;;;8.90;99.90;;;;;;5073381;28;20168;-70
2023/04/23 00:40:56;;;;;;;66.18;42.58;;;8.90;99.90;;;;;;5076438;28;20052;-70
2023/04/23 00:43:22;;;;;;;74.85;45.55;;;8.90;99.90;;;;;;5076540;28;20128;-70
2023/04/23 00:45:49;;;;;;;59.42;41.40;;;8.90;99.90;;;;;;5080578;28;20047;-70
2023/04/23 00:48:15;;;;;;;66.95;41.53;;;8.90;99.90;;;;;;5088589;28;20051;-70
2023/04/23 00:50:41;;;;;;;64.88;42.47;;;8.90;99.90;;;;;;5085369;28;20553;-70
2023/04/23 00:53:07;;;;;;;71.05;42.80;;;8.90;99.90;;;;;;5078099;28;20052;-70
2023/04/23 00:55:33;;;;;;;59.05;41.95;;;8.90;99.90;;;;;;5079781;28;20052;-70
2023/04/23 00:57:59;;;;;;;60.83;40.80;;;8.90;99.90;;;;;;5078645;28;20094;-70
2023/04/23 01:00:25;;;;;;;61.72;42.25;;;8.90;99.90;;;;;;5085018;28;20036;-70
2023/04/23 01:02:52;;;;;;;53.00;37.75;;;8.90;99.90;;;;;;5074023;28;20048;-70
2023/04/23 01:05:19;;;;;;;58.72;40.30;;;8.80;99.90;;;;;;5082327;28;20044;-70
2023/04/23 01:07:46;;;;;;;61.60;40.58;;;8.80;99.90;;;;;;5076844;28;20104;-70
2023/04/23 01:10:12;;;;;;;54.97;38.03;;;8.80;99.90;;;;;;5087560;28;20397;-70
2023/04/23 01:12:37;;;;;;;64.47;41.53;;;8.80;99.90;;;;;;5079038;28;20044;-70
2023/04/23 01:15:04;;;;;;;57.03;36.50;;;8.80;99.90;;;;;;5082551;28;20043;-70
2023/04/23 01:17:31;;;;;;;60.88;41.80;;;8.80;99.90;;;;;;5079348;28;20408;-70
2023/04/23 01:19:57;;;;;;;67.80;45.67;;;8.80;99.90;;;;;;5081225;28;20453;-70
2023/04/23 01:22:23;;;;;;;63.47;40.63;;;8.70;99.90;;;;;;5081021;28;20127;-70
2023/04/23 01:24:49;;;;;;;57.47;38.45;;;8.70;99.90;;;;;;5108968;28;20041;-70
2023/04/23 01:27:15;;;;;;;65.97;43.17;;;8.70;99.90;;;;;;5079146;28;20044;-70
2023/04/23 01:29:41;;;;;;;67.10;41.90;;;8.70;99.90;;;;;;5080077;28;20040;-70
2023/04/23 01:32:07;;;;;;;58.10;39.90;;;8.60;99.90;;;;;;5081687;28;20055;-69
2023/04/23 01:34:35;;;;;;;63.60;39.85;;;8.60;99.90;;;;;;5076534;28;20048;-69
2023/04/23 01:37:03;;;;;;;73.87;45.00;;;8.60;99.90;;;;;;5070001;28;20383;-69
2023/04/23 01:39:28;;;;;;;59.97;38.72;;;8.60;99.90;;;;;;5078205;28;20133;-70
2023/04/23 01:41:54;;;;;;;61.70;40.67;;;8.60;99.90;;;;;;5074801;28;20106;-70
2023/04/23 01:44:20;;;;;;;61.80;41.25;;;8.50;99.90;;;;;;5068049;28;20040;-69
2023/04/23 01:46:45;;;;;;;71.38;43.55;;;8.50;99.90;;;;;;5080138;28;20036;-70
2023/04/23 01:49:12;;;;;;;59.17;41.53;;;8.50;99.90;;;;;;5080398;28;20048;-70
2023/04/23 01:51:37;;;;;;;79.60;47.30;;;8.40;99.90;;;;;;5078208;28;20151;-70
2023/04/23 01:54:03;;;;;;;75.82;45.80;;;8.50;99.90;;;;;;5081944;28;20126;-70
2023/04/23 01:56:29;;;;;;;72.65;47.35;;;8.40;99.90;;;;;;5073771;28;20055;-70
2023/04/23 01:58:55;;;;;;;81.20;48.60;;;8.50;99.90;;;;;;5082484;28;20059;-70
2023/04/23 02:01:21;;;;;;;78.97;51.47;;;8.40;99.90;;;;;;5083741;28;20060;-70
2023/04/23 02:03:49;;;;;;;92.50;57.22;;;8.40;99.90;;;;;;5074571;28;20033;-69
2023/04/23 02:06:14;;;;;;;78.95;49.30;;;8.40;99.90;;;;;;5083100;28;20048;-70
2023/04/23 02:08:41;;;;;;;73.53;47.40;;;8.40;99.90;;;;;;5075289;28;20046;-70
2023/04/23 02:11:07;;;;;;;77.60;46.40;;;8.40;99.90;;;;;;5076820;28;20051;-70
2023/04/23 02:13:32;;;;;;;69.82;46.05;;;8.40;99.90;;;;;;5070426;28;20608;-70
2023/04/23 02:15:58;;;;;;;78.82;47.33;;;8.40;99.90;;;;;;5087366;28;20059;-70
2023/04/23 02:18:25;;;;;;;83.57;47.58;;;8.30;99.90;;;;;;5086190;28;20123;-70
2023/04/23 02:20:51;;;;;;;82.97;51.40;;;8.30;99.90;;;;;;5078511;28;20072;-70
2023/04/23 02:23:16;;;;;;;72.93;46.63;;;8.30;99.90;;;;;;5081065;28;20075;-70
2023/04/23 02:25:42;;;;;;;71.38;48.00;;;8.30;99.90;;;;;;5082318;28;20036;-70
2023/04/23 02:28:10;;;;;;;76.00;49.47;;;8.30;99.90;;;;;;5084601;28;20044;-70
2023/04/23 02:30:36;;;;;;;79.78;49.92;;;8.20;99.90;;;;;;5082465;28;20082;-70
2023/04/23 02:33:02;;;;;;;90.63;56.22;;;8.20;99.90;;;;;;5087198;28;20474;-70
2023/04/23 02:35:29;;;;;;;87.90;51.88;;;8.20;99.90;;;;;;5085914;28;20584;-70
2023/04/23 02:37:55;;;;;;;83.82;53.53;;;8.20;99.90;;;;;;5074556;28;20509;-69
2023/04/23 02:40:20;;;;;;;74.07;48.92;;;8.10;99.90;;;;;;5083251;28;20051;-70
2023/04/23 02:42:46;;;;;;;75.82;49.25;;;8.10;99.90;;;;;;5080388;28;20099;-70
2023/04/23 02:45:12;;;;;;;80.07;50.85;;;8.00;99.90;;;;;;5082514;28;20507;-70
2023/04/23 02:47:38;;;;;;;82.70;52.03;;;8.00;99.90;;;;;;5086499;28;20039;-70
2023/04/23 02:50:05;;;;;;;83.60;50.38;;;8.00;99.90;;;;;;5089435;28;20067;-70
2023/04/23 02:52:31;;;;;;;81.20;53.28;;;7.90;99.90;;;;;;5090771;28;20060;-70
2023/04/23 02:54:57;;;;;;;80.63;52.13;;;7.90;99.90;;;;;;5078901;28;20525;-70
2023/04/23 02:57:23;;;;;;;93.05;57.10;;;7.90;99.90;;;;;;5082512;28;20047;-70
2023/04/23 02:59:49;;;;;;;93.40;56.38;;;7.80;99.90;;;;;;5083737;28;20524;-69
2023/04/23 03:02:15;;;;;;;89.70;54.08;;;7.80;99.90;;;;;;5081561;28;20048;-69
2023/04/23 03:04:41;;;;;;;93.40;59.22;;;7.80;99.90;;;;;;5079256;28;20052;-70
2023/04/23 03:07:07;;;;;;;95.47;59.00;;;7.70;99.90;;;;;;5085284;28;20051;-70
2023/04/23 03:09:33;;;;;;;106.95;64.43;;;7.70;99.90;;;;;;5087186;28;20040;-70
2023/04/23 03:11:58;;;;;;;102.15;61.10;;;7.60;99.90;;;;;;5082413;28;20397;-70
2023/04/23 03:14:25;;;;;;;102.93;61.70;;;7.60;99.90;;;;;;5072629;28;20382;-70
2023/04/23 03:16:51;;;;;;;108.22;64.95;;;7.50;99.90;;;;;;5082865;28;20746;-70
2023/04/23 03:19:16;;;;;;;99.70;61.60;;;7.50;99.90;;;;;;5083663;28;20074;-69
2023/04/23 03:21:42;;;;;;;94.65;60.15;;;7.50;99.90;;;;;;5081921;28;20083;-69
2023/04/23 03:24:09;;;;;;;95.72;55.67;;;7.50;99.90;;;;;;5086273;28;20044;-69
2023/04/23 03:26:34;;;;;;;83.60;54.08;;;7.50;99.90;;;;;;5087469;28;20037;-70
2023/04/23 03:29:00;;;;;;;89.50;54.25;;;7.40;99.90;;;;;;5076037;28;20464;-70
2023/04/23 03:31:26;;;;;;;88.18;52.55;;;7.40;99.90;;;;;;5083258;28;20417;-70
2023/04/23 03:33:51;;;;;;;95.82;56.63;;;7.30;99.90;;;;;;5088567;28;20109;-70
2023/04/23 03:36:17;;;;;;;92.10;55.38;;;7.30;99.90;;;;;;5086633;28;20071;-70
2023/04/23 03:38:42;;;;;;;86.47;58.28;;;7.30;99.90;;;;;;5082328;28;20036;-70
2023/04/23 03:41:09;;;;;;;97.43;58.47;;;7.20;99.90;;;;;;5086817;28;20480;-70
2023/04/23 03:43:37;;;;;;;104.20;60.83;;;7.30;99.90;;;;;;5091034;28;20043;-70
2023/04/23 03:46:03;;;;;;;97.60;59.92;;;7.20;99.90;;;;;;5078186;28;20086;-70
2023/04/23 03:48:28;;;;;;;92.38;58.05;;;7.20;99.90;;;;;;5076303;28;20125;-70
2023/04/23 03:50:54;;;;;;;105.47;62.85;;;7.20;99.90;;;;;;5081318;28;20056;-70
2023/04/23 03:53:20;;;;;;;161.38;57.15;;;7.20;99.90;;;;;;5084197;28;20056;-70
2023/04/23 03:55:46;;;;;;;86.15;44.60;;;7.10;99.90;;;;;;5075504;28;20040;-69
2023/04/23 03:58:11;;;;;;;69.07;41.83;;;6.90;99.90;;;;;;5077940;28;20036;-70
2023/04/23 04:00:37;;;;;;;120.68;45.33;;;6.80;99.90;;;;;;5079299;28;20041;-70
2023/04/23 04:03:03;;;;;;;82.82;50.80;;;6.70;99.90;;;;;;5087263;28;20098;-70
2023/04/23 04:05:28;;;;;;;82.93;51.38;;;6.70;99.90;;;;;;5073825;28;20040;-69
2023/04/23 04:07:56;;;;;;;75.72;49.55;;;6.70;99.90;;;;;;5077979;28;20132;-69
2023/04/23 04:10:21;;;;;;;61.92;42.58;;;6.70;99.90;;;;;;5072871;28;20044;-70
2023/04/23 04:12:47;;;;;;;65.75;42.60;;;6.70;99.90;;;;;;5071482;28;20078;-70
2023/04/23 04:15:14;;;;;;;74.53;46.92;;;6.80;99.90;;;;;;5074755;28;20035;-70
2023/04/23 04:17:40;;;;;;;112.50;61.30;;;6.80;99.90;;;;;;5115256;27;20048;-70
2023/04/23 04:20:07;;;;;;;121.55;67.50;;;6.80;99.90;;;;;;5071456;28;20104;-70
2023/04/23 04:22:33;;;;;;;93.75;56.38;;;6.90;99.90;;;;;;5071036;28;20501;-70
2023/04/23 04:24:58;;;;;;;104.28;62.35;;;6.90;99.90;;;;;;5075854;28;20044;-70
2023/04/23 04:27:24;;;;;;;95.95;59.15;;;6.90;99.90;;;;;;5077633;28;20040;-70
2023/04/23 04:29:50;;;;;;;110.20;65.70;;;6.90;99.90;;;;;;5071487;28;20505;-70
2023/04/23 04:32:16;;;;;;;121.25;71.32;;;6.90;99.90;;;;;;5088108;28;20436;-70
2023/04/23 04:34:42;;;;;;;217.73;96.65;;;6.90;99.90;;;;;;5088824;28;20036;-70
2023/04/23 04:37:09;;;;;;;188.20;89.05;;;7.00;99.90;;;;;;5082658;28;20173;-70
2023/04/23 04:39:35;;;;;;;243.68;92.85;;;7.00;99.90;;;;;;5081941;28;20040;-70
2023/04/23 04:42:01;;;;;;;154.95;82.38;;;7.10;99.90;;;;;;5083187;28;20050;-70
2023/04/23 04:44:28;;;;;;;212.63;84.47;;;7.10;99.90;;;;;;5084321;28;20047;-70
2023/04/23 04:46:53;;;;;;;336.40;94.90;;;7.10;99.90;;;;;;5088004;28;20047;-70
2023/04/23 04:49:20;;;;;;;217.98;84.30;;;7.10;99.90;;;;;;5087524;28;20085;-70
2023/04/23 04:51:46;;;;;;;162.60;79.60;;;7.10;99.90;;;;;;5084411;28;20135;-70
2023/04/23 04:54:11;;;;;;;156.40;77.88;;;7.10;99.90;;;;;;5078920;28;20098;-70
2023/04/23 04:56:37;;;;;;;150.55;78.28;;;7.10;99.90;;;;;;5077995;28;20051;-70
2023/04/23 04:59:03;;;;;;;190.05;89.15;;;7.10;99.90;;;;;;5084623;28;20400;-70
2023/04/23 05:01:29;;;;;;;142.50;79.50;;;7.10;99.90;;;;;;5074179;28;20040;-70
2023/04/23 05:03:55;;;;;;;180.10;86.88;;;7.20;99.90;;;;;;5079579;28;20198;-70
2023/04/23 05:06:21;;;;;;;233.52;94.85;;;7.20;99.90;;;;;;5081365;28;20051;-70
2023/04/23 05:08:47;;;;;;;205.80;90.00;;;7.20;99.90;;;;;;5080084;28;20044;-70
2023/04/23 05:11:17;;;;;;;318.35;105.00;;;7.30;99.90;;;;;;5084579;28;20059;-70
2023/04/23 05:13:44;;;;;;;195.15;94.50;;;7.30;99.90;;;;;;5077284;28;20047;-70
2023/04/23 05:16:10;;;;;;;175.98;89.13;;;7.30;99.90;;;;;;5086846;28;20040;-70
2023/04/23 05:18:37;;;;;;;164.13;90.53;;;7.40;99.90;;;;;;5078781;28;20485;-70
2023/04/23 05:21:03;;;;;;;150.60;86.15;;;7.40;99.90;;;;;;5067850;28;20493;-70
2023/04/23 05:23:29;;;;;;;168.90;91.55;;;7.60;99.90;;;;;;5083756;28;20075;-70
2023/04/23 05:25:55;;;;;;;149.25;85.43;;;7.60;99.90;;;;;;5112472;27;20056;-70
2023/04/23 05:28:21;;;;;;;188.25;93.30;;;7.70;99.90;;;;;;5081585;28;20056;-70
2023/04/23 05:30:48;;;;;;;218.65;103.68;;;7.80;99.90;;;;;;5078159;28;20052;-70
2023/04/23 05:33:14;;;;;;;171.07;90.78;;;7.80;99.90;;;;;;5078650;28;20059;-70
2023/04/23 05:35:40;;;;;;;183.80;95.80;;;7.80;99.90;;;;;;5077244;28;20044;-70
2023/04/23 05:38:08;;;;;;;161.88;90.00;;;7.80;99.90;;;;;;5073011;28;20072;-70
2023/04/23 05:40:33;;;;;;;194.88;100.70;;;7.80;99.90;;;;;;5080384;28;20046;-70
2023/04/23 05:42:59;;;;;;;174.27;93.63;;;7.90;99.90;;;;;;5087980;28;20036;-70
2023/04/23 05:45:26;;;;;;;190.88;102.45;;;7.90;99.90;;;;;;5080846;28;20050;-70
2023/04/23 05:47:53;;;;;;;183.30;97.45;;;8.00;99.90;;;;;;5078313;28;20067;-70
2023/04/23 05:50:20;;;;;;;184.48;97.63;;;8.00;99.90;;;;;;5081039;28;20515;-70
2023/04/23 05:52:46;;;;;;;199.55;102.20;;;8.10;99.90;;;;;;5080958;28;20590;-70
2023/04/23 05:55:14;;;;;;;197.30;101.57;;;8.10;99.90;;;;;;5080827;28;20131;-70
2023/04/23 05:57:40;;;;;;;199.80;102.03;;;8.20;99.90;;;;;;5078573;28;20115;-70
2023/04/23 06:00:10;;;;;;;194.48;102.85;;;8.20;99.90;;;;;;5087271;28;20526;-70
2023/04/23 06:02:37;;;;;;;176.05;98.30;;;8.30;99.90;;;;;;5086206;28;20040;-70
2023/04/23 06:05:03;;;;;;;182.55;103.90;;;8.40;99.90;;;;;;5088127;28;20028;-70
2023/04/23 06:07:29;;;;;;;213.63;110.85;;;8.50;99.90;;;;;;5082433;28;20052;-70
2023/04/23 06:09:55;;;;;;;179.85;97.97;;;8.50;99.90;;;;;;5082854;28;20055;-70
2023/04/23 06:12:21;;;;;;;180.13;98.65;;;8.60;99.90;;;;;;5085063;28;20036;-70
2023/04/23 06:14:46;;;;;;;182.75;99.72;;;8.60;99.90;;;;;;5078905;28;20381;-70
2023/04/23 06:17:12;;;;;;;167.48;94.18;;;8.70;99.90;;;;;;5082700;28;20043;-70
2023/04/23 06:19:37;;;;;;;187.60;95.50;;;8.90;99.90;;;;;;5085110;28;20694;-70
2023/04/23 06:22:04;;;;;;;167.73;94.63;;;9.20;99.90;;;;;;5089193;28;20531;-70
2023/04/23 06:24:31;;;;;;;170.60;92.32;;;9.40;99.90;;;;;;5079803;28;20564;-69
2023/04/23 06:26:56;;;;;;;173.18;95.70;;;9.50;99.90;;;;;;5080237;28;20052;-70
2023/04/23 06:29:22;;;;;;;180.93;98.95;;;9.70;99.90;;;;;;5079184;28;20055;-70
2023/04/23 06:31:48;;;;;;;156.20;91.82;;;9.90;99.90;;;;;;5082512;28;20122;-69
2023/04/23 06:34:13;;;;;;;176.88;99.97;;;10.20;99.90;;;;;;5085443;28;20055;-70
2023/04/23 06:36:39;;;;;;;159.80;90.47;;;10.40;99.90;;;;;;5082302;28;20038;-71
2023/04/23 06:39:05;;;;;;;176.90;95.53;;;10.50;99.90;;;;;;5084526;28;20047;-70
2023/04/23 06:41:30;;;;;;;168.48;91.60;;;10.70;99.90;;;;;;5093051;28;20085;-70
2023/04/23 06:43:56;;;;;;;138.27;81.22;;;10.80;99.90;;;;;;5082298;28;20059;-70
2023/04/23 06:46:22;;;;;;;134.50;80.15;;;10.80;99.90;;;;;;5088962;28;20048;-70
2023/04/23 06:48:47;;;;;;;135.02;78.15;;;11.00;99.90;;;;;;5082914;28;20044;-70
2023/04/23 06:51:13;;;;;;;133.52;78.28;;;11.10;99.90;;;;;;5085133;28;20400;-71
2023/04/23 06:53:39;;;;;;;123.13;74.22;;;11.30;99.90;;;;;;5075854;28;20045;-70
2023/04/23 06:56:06;;;;;;;124.75;73.88;;;11.50;99.90;;;;;;5086619;28;20052;-70
2023/04/23 06:58:32;;;;;;;115.40;72.05;;;11.60;99.90;;;;;;5082051;28;20044;-71
2023/04/23 07:01:03;;;;;;;112.72;68.15;;;11.80;99.90;;;;;;5092438;28;20047;-71
2023/04/23 07:03:30;;;;;;;98.63;64.40;;;11.90;99.90;;;;;;5086834;28;20043;-71
2023/04/23 07:05:56;;;;;;;95.77;64.40;;;12.20;99.90;;;;;;5085764;28;20040;-71
2023/04/23 07:08:22;;;;;;;83.47;56.38;;;12.30;99.90;;;;;;5081095;28;20554;-71
2023/04/23 07:10:48;;;;;;;90.57;58.35;;;12.40;99.90;;;;;;5090470;28;20051;-71
2023/04/23 07:13:15;;;;;;;78.35;52.35;;;12.60;99.90;;;;;;5089931;28;20040;-71
2023/04/23 07:15:41;;;;;;;82.63;53.22;;;12.80;99.90;;;;;;5087799;28;20521;-71
2023/04/23 07:18:08;;;;;;;77.97;52.70;;;12.80;99.90;;;;;;5083260;28;20045;-71
2023/04/23 07:20:34;;;;;;;77.07;51.05;;;13.00;99.90;;;;;;5083103;28;20093;-71
2023/04/23 07:23:00;;;;;;;76.43;50.63;;;13.10;99.90;;;;;;5080284;28;20048;-71
2023/04/23 07:25:26;;;;;;;76.68;50.10;;;13.30;99.90;;;;;;5090267;28;20055;-71
2023/04/23 07:27:53;;;;;;;79.20;51.05;;;13.40;99.90;;;;;;5081062;28;20089;-71
2023/04/23 07:30:19;;;;;;;78.53;52.63;;;13.60;99.90;;;;;;5087527;28;20086;-71
2023/04/23 07:32:45;;;;;;;80.45;47.95;;;13.80;99.90;;;;;;5083161;28;20047;-70
2023/04/23 07:35:11;;;;;;;69.07;47.55;;;13.90;99.90;;;;;;5089037;28;20059;-71
2023/04/23 07:37:37;;;;;;;76.22;49.38;;;14.00;99.90;;;;;;5080473;28;20044;-71
2023/04/23 07:40:04;;;;;;;71.82;46.95;;;14.10;99.90;;;;;;5083778;28;20048;-71
2023/04/23 07:42:30;;;;;;;65.43;44.75;;;14.30;99.90;;;;;;5072356;28;20048;-71
2023/04/23 07:44:56;;;;;;;68.78;47.72;;;14.40;99.90;;;;;;5076077;28;20063;-71
2023/04/23 07:47:22;;;;;;;68.72;46.67;;;14.60;99.90;;;;;;5079261;28;20052;-70
2023/04/23 07:49:48;;;;;;;68.85;47.20;;;14.80;99.90;;;;;;5088495;28;20047;-70
2023/04/23 07:52:15;;;;;;;68.32;45.97;;;15.00;99.90;;;;;;5086835;28;20051;-70
2023/04/23 07:54:40;;;;;;;70.15;46.60;;;15.20;99.90;;;;;;5079151;28;20041;-70
2023/04/23 07:57:07;;;;;;;67.85;44.60;;;15.20;99.90;;;;;;5092279;28;20401;-70
2023/04/23 07:59:33;;;;;;;63.20;43.45;;;15.30;99.90;;;;;;5079939;28;20540;-70
2023/04/23 08:01:58;;;;;;;64.30;42.38;;;15.40;99.90;;;;;;5082798;28;20040;-70
2023/04/23 08:04:24;;;;;;;56.65;40.35;;;15.50;99.90;;;;;;5089604;28;20032;-70
2023/04/23 08:06:50;;;;;;;56.75;42.28;;;15.60;99.90;;;;;;5087910;28;20494;-70
2023/04/23 08:09:16;;;;;;;58.03;41.97;;;15.70;99.90;;;;;;5088557;28;20036;-70
2023/04/23 08:11:42;;;;;;;53.80;40.78;;;15.70;99.90;;;;;;5084059;28;20093;-71
2023/04/23 08:14:07;;;;;;;56.92;39.55;;;15.80;99.90;;;;;;5083092;28;20127;-70
2023/04/23 08:16:33;;;;;;;57.65;41.42;;;15.90;99.90;;;;;;5080359;28;20371;-70
2023/04/23 08:18:59;;;;;;;53.33;39.65;;;15.90;99.90;;;;;;5080994;28;20776;-70
2023/04/23 08:21:26;;;;;;;59.30;39.85;;;16.00;99.90;;;;;;5082959;28;20117;-70
2023/04/23 08:23:52;;;;;;;59.10;40.00;;;16.20;99.90;;;;;;5087642;28;20123;-70
2023/04/23 08:26:18;;;;;;;54.22;38.35;;;16.20;99.90;;;;;;5085876;28;20131;-70
2023/04/23 08:28:45;;;;;;;51.63;39.03;;;16.40;99.90;;;;;;5084460;28;20036;-70
2023/04/23 08:31:12;;;;;;;57.40;39.08;;;16.50;99.90;;;;;;5088722;28;20055;-70
2023/04/23 08:33:38;;;;;;;50.08;35.00;;;16.60;99.90;;;;;;5082811;28;20039;-70
2023/04/23 08:36:04;;;;;;;48.25;37.42;;;16.70;99.90;;;;;;5081236;28;20456;-70
2023/04/23 08:38:30;;;;;;;48.28;36.30;;;16.70;99.90;;;;;;5073712;28;20058;-70
2023/04/23 08:40:57;;;;;;;51.35;37.50;;;16.70;99.90;;;;;;5093861;28;20043;-70
2023/04/23 08:43:30;;;;;;;47.33;36.08;;;16.80;99.90;;;;;;5081792;28;20051;-69
2023/04/23 08:46:03;;;;;;;48.70;36.72;;;16.90;99.90;;;;;;5087130;28;20177;-70
2023/04/23 08:48:29;;;;;;;50.45;34.40;;;17.10;99.90;;;;;;5081516;28;20097;-70
2023/04/23 08:50:56;;;;;;;47.28;33.22;;;17.10;99.90;;;;;;5087090;28;20481;-70
2023/04/23 08:53:26;;;;;;;55.27;39.40;;;17.10;99.90;;;;;;5083992;28;20083;-70
2023/04/23 08:55:55;;;;;;;44.40;35.40;;;17.20;99.90;;;;;;5070529;28;20113;-70
2023/04/23 08:58:20;;;;;;;;;;;17.20;99.90;;;;;;5085571;28;20118;-70
2023/04/23 09:00:47;;;;;;;40.17;29.77;;;17.30;99.90;;;;;;5078978;28;20031;-70
2023/04/23 09:03:15;;;;;;;44.67;33.47;;;17.40;99.90;;;;;;5084641;28;20060;-70
2023/04/23 09:05:41;;;;;;;45.35;31.88;;;17.50;99.90;;;;;;5075798;28;20798;-70
2023/04/23 09:08:08;;;;;;;42.85;29.63;;;17.60;99.90;;;;;;5083568;28;20055;-70
2023/04/23 09:10:38;;;;;;;47.00;31.88;;;17.70;99.90;;;;;;5077135;28;20056;-70
2023/04/23 09:13:04;;;;;;;43.75;31.83;;;17.80;99.90;;;;;;5081967;28;20051;-70
2023/04/23 09:15:30;;;;;;;39.72;28.55;;;17.90;99.90;;;;;;5087164;28;20523;-70
2023/04/23 09:17:57;;;;;;;36.15;25.40;;;17.90;99.90;;;;;;5103530;28;20058;-70
2023/04/23 09:20:22;;;;;;;33.35;25.02;;;18.10;99.90;;;;;;5085872;28;20040;-70
2023/04/23 09:22:51;;;;;;;36.20;27.30;;;18.20;99.90;;;;;;5083872;28;20043;-70
2023/04/23 09:25:19;;;;;;;37.17;27.15;;;18.30;99.90;;;;;;5086736;28;20123;-70
2023/04/23 09:27:46;;;;;;;32.60;24.88;;;18.40;99.90;;;;;;5103371;27;20075;-70
2023/04/23 09:30:12;;;;;;;33.95;24.70;;;18.60;99.90;;;;;;5071495;28;20520;-71
2023/04/23 09:32:41;;;;;;;32.65;23.73;;;18.70;99.90;;;;;;5077308;28;20114;-70
2023/04/23 09:35:09;;;;;;;33.15;23.92;;;18.70;99.90;;;;;;5088441;28;20784;-70
2023/04/23 09:37:35;;;;;;;;;;;18.70;99.90;;;;;;5078727;28;20083;-70
2023/04/23 09:40:08;;;;;;;28.42;21.70;;;18.70;99.90;;;;;;5073656;28;19967;-70
2023/04/23 09:42:35;;;;;;;27.73;21.45;;;18.70;99.90;;;;;;5084290;28;20545;-71
2023/04/23 09:45:11;;;;;;;34.38;23.80;;;18.80;99.90;;;;;;5078508;28;20068;-71
2023/04/23 09:47:39;;;;;;;30.15;22.45;;;18.90;99.90;;;;;;5078334;28;20416;-71
2023/04/23 09:50:06;;;;;;;30.85;21.52;;;18.90;99.90;;;;;;5081036;28;20055;-71
2023/04/23 09:52:32;;;;;;;28.83;20.10;;;18.80;99.90;;;;;;5091931;28;20123;-71
2023/04/23 09:55:01;;;;;;;28.67;20.48;;;18.80;99.90;;;;;;5076909;28;20116;-71
2023/04/23 09:57:27;;;;;;;34.25;20.52;;;18.70;99.90;;;;;;5082982;28;20044;-71
2023/04/23 09:59:56;;;;;;;31.08;22.45;;;18.90;99.90;;;;;;5091372;28;20067;-70
2023/04/23 10:02:27;;;;;;;32.53;18.52;;;19.10;99.90;;;;;;5084371;28;20049;-70
2023/04/23 10:04:53;;;;;;;24.42;17.98;;;19.20;99.90;;;;;;5090337;28;21102;-70
2023/04/23 10:07:20;;;;;;;27.80;17.92;;;19.30;99.90;;;;;;5092404;28;20024;-70
2023/04/23 10:09:46;;;;;;;27.52;17.45;;;19.40;99.90;;;;;;5091752;28;20847;-70
2023/04/23 10:12:13;;;;;;;21.48;16.15;;;19.30;99.90;;;;;;5092169;28;20435;-70
2023/04/23 10:14:40;;;;;;;25.90;15.05;;;19.00;99.90;;;;;;5091489;28;20040;-69
2023/04/23 10:17:06;;;;;;;18.88;15.77;;;18.80;99.90;;;;;;5091950;28;20122;-70
2023/04/23 10:19:33;;;;;;;25.23;16.33;;;18.70;99.90;;;;;;5088849;28;20612;-70
2023/04/23 10:22:04;;;;;;;18.30;14.35;;;18.60;99.90;;;;;;5091976;28;20418;-70
2023/04/23 10:24:32;;;;;;;23.83;14.57;;;18.50;99.90;;;;;;5092202;28;20036;-69
2023/04/23 10:27:03;;;;;;;17.98;13.60;;;18.50;99.90;;;;;;5092061;28;20079;-69
2023/04/23 10:29:31;;;;;;;22.33;16.20;;;18.60;99.90;;;;;;5090873;28;20562;-69
2023/04/23 10:31:59;;;;;;;23.00;16.38;;;18.60;99.90;;;;;;5090440;28;20044;-69
2023/04/23 10:34:27;;;;;;;23.33;13.52;;;18.70;99.90;;;;;;5087396;28;20048;-69
2023/04/23 10:36:54;;;;;;;24.77;14.02;;;18.80;99.90;;;;;;5085229;28;20126;-69
2023/04/23 10:39:21;;;;;;;14.02;11.57;;;18.80;99.90;;;;;;5089781;28;20493;-69
2023/04/23 10:41:47;;;;;;;14.50;11.90;;;19.00;99.90;;;;;;5079577;28;20047;-69
2023/04/23 10:44:15;;;;;;;16.67;9.95;;;19.20;99.90;;;;;;5078298;28;20041;-69
2023/04/23 10:46:55;;;;;;;14.75;9.75;;;19.40;99.90;;;;;;5083632;28;20767;-69
2023/04/23 10:49:22;;;;;;;14.20;9.88;;;19.60;99.90;;;;;;5087939;28;20043;-69
2023/04/23 10:51:56;;;;;;;11.77;8.27;;;19.60;99.90;;;;;;5086264;28;20086;-70
2023/04/23 10:54:31;;;;;;;12.52;8.77;;;19.70;99.90;;;;;;5077681;28;20080;-69
2023/04/23 10:57:00;;;;;;;14.70;9.02;;;19.60;99.20;;;;;;5090770;28;20055;-69
2023/04/23 10:59:28;;;;;;;14.15;7.78;;;19.50;99.90;;;;;;5087087;28;20127;-69
2023/04/23 11:01:55;;;;;;;11.57;8.10;;;19.30;98.40;;;;;;5081590;28;20378;-69
2023/04/23 11:04:27;;;;;;;19.37;8.70;;;19.10;98.60;;;;;;5084615;28;20040;-69
2023/04/23 11:06:57;;;;;;;14.52;7.80;;;19.00;99.80;;;;;;5079835;28;20044;-69
2023/04/23 11:09:51;;;;;;;11.88;7.63;;;18.80;99.90;;;;;;5073692;28;20131;-70
2023/04/23 11:12:25;;;;;;;11.35;7.47;;;18.90;99.90;;;;;;5078595;28;20454;-69
2023/04/23 11:14:53;;;;;;;9.95;6.43;;;19.00;99.90;;;;;;5090413;28;20642;-70
2023/04/23 11:17:31;;;;;;;15.00;6.45;;;19.00;99.90;;;;;;5081482;28;20541;-70
2023/04/23 11:20:20;;;;;;;;;;;19.00;99.90;;;;;;5089787;28;20816;-69
2023/04/23 11:22:48;;;;;;;13.18;5.63;;;18.90;97.50;;;;;;5072086;28;19978;-70
2023/04/23 11:25:20;;;;;;;22.98;7.82;;;18.80;98.10;;;;;;5075471;28;20374;-70
2023/04/23 11:27:47;;;;;;;12.45;6.63;;;18.70;98.00;;;;;;5089246;28;20452;-70
2023/04/23 11:30:18;;;;;;;9.93;5.38;;;18.60;98.10;;;;;;5077694;28;20048;-70
2023/04/23 11:32:47;;;;;;;9.02;6.05;;;18.60;97.30;;;;;;5081608;28;20459;-70
2023/04/23 11:35:15;;;;;;;14.18;4.75;;;18.60;97.40;;;;;;5083780;28;20095;-69
2023/04/23 11:37:42;;;;;;;19.02;5.50;;;18.70;96.20;;;;;;5086345;28;20040;-70
2023/04/23 11:40:17;;;;;;;10.88;4.97;;;19.00;96.10;;;;;;5088811;28;20072;-70
2023/04/23 11:42:50;;;;;;;11.98;5.32;;;19.30;94.80;;;;;;5071971;28;20055;-70
2023/04/23 11:45:24;;;;;;;8.55;3.33;;;19.60;91.20;;;;;;5087764;28;20044;-70
2023/04/23 11:47:54;;;;;;;6.68;4.03;;;19.90;91.80;;;;;;5088906;28;20675;-70
2023/04/23 11:50:29;;;;;;;7.18;3.85;;;20.00;88.40;;;;;;5087648;28;20039;-70
2023/04/23 11:52:55;;;;;;;5.55;3.42;;;19.90;87.20;;;;;;5085145;28;20133;-70
2023/04/23 11:55:23;;;;;;;8.20;4.78;;;19.90;81.20;;;;;;5086489;28;20584;-70
2023/04/23 11:57:51;;;;;;;5.13;3.37;;;19.90;80.40;;;;;;5086202;28;20048;-70
2023/04/23 12:00:21;;;;;;;7.53;4.00;;;20.10;80.80;;;;;;5075918;28;20810;-70
2023/04/23 12:02:51;;;;;;;6.22;3.00;;;20.10;79.40;;;;;;5087479;28;20044;-70
2023/04/23 12:05:27;;;;;;;7.78;3.97;;;20.10;79.10;;;;;;5084730;28;20528;-70
2023/04/23 12:07:53;;;;;;;5.85;3.88;;;20.10;77.20;;;;;;5078970;28;20045;-70
2023/04/23 12:10:20;;;;;;;8.77;3.83;;;20.00;78.60;;;;;;5080094;28;20055;-70
2023/04/23 12:12:50;;;;;;;7.07;4.13;;;20.00;78.00;;;;;;5086587;28;20144;-70
2023/04/23 12:15:16;;;;;;;6.05;3.45;;;20.10;75.90;;;;;;5084866;28;20114;-70
2023/04/23 12:17:42;;;;;;;7.53;4.85;;;20.20;76.00;;;;;;5075718;28;20050;-70
2023/04/23 12:20:19;;;;;;;14.65;4.97;;;20.20;73.90;;;;;;5087642;28;20394;-70
2023/04/23 12:22:45;;;;;;;8.27;3.78;;;20.30;72.70;;;;;;5080904;28;20345;-70
2023/04/23 12:25:11;;;;;;;6.75;3.30;;;20.50;73.80;;;;;;5073693;28;21265;-70
2023/04/23 12:27:41;;;;;;;5.13;3.50;;;20.60;73.70;;;;;;5092714;28;20082;-70
2023/04/23 12:30:08;;;;;;;4.03;3.50;;;20.50;71.50;;;;;;5084248;28;20101;-70
2023/04/23 12:32:34;;;;;;;13.70;3.97;;;20.40;72.80;;;;;;5083949;28;20077;-70